sensor_id;sensor_type;location;lat;lon;timestamp;pressure;altitude;pressure_sealevel;temperature;humidity
2549;BME280;1284;53.520;10.248;2022-10-16T00:01:45;100252.53;;;17.35;96.17
2549;BME280;1284;53.520;10.248;2022-10-16T00:04:11;100242.69;;;17.45;96.13
2549;BME280;1284;53.520;10.248;2022-10-16T00:06:37;100248.28;;;17.34;95.64
2549;BME280;1284;53.520;10.248;2022-10-16T00:09:03;100240.00;;;17.41;95.86
2549;BME280;1284;53.520;10.248;2022-10-16T00:11:31;100258.03;;;17.32;95.36
2549;BME280;1284;53.520;10.248;2022-10-16T00:14:05;100254.19;;;16.99;96.97
2549;BME280;1284;53.520;10.248;2022-10-16T00:16:31;100253.81;;;16.97;97.09
2549;BME280;1284;53.520;10.248;2022-10-16T00:18:56;100255.72;;;17.00;97.61
2549;BME280;1284;53.520;10.248;2022-10-16T00:21:27;100256.91;;;16.99;97.80
2549;BME280;1284;53.520;10.248;2022-10-16T00:23:58;100257.31;;;16.97;97.75
2549;BME280;1284;53.520;10.248;2022-10-16T00:26:25;100253.19;;;16.86;97.68
2549;BME280;1284;53.520;10.248;2022-10-16T00:28:51;100264.63;;;17.04;97.58
2549;BME280;1284;53.520;10.248;2022-10-16T00:31:20;100266.69;;;16.93;96.94
2549;BME280;1284;53.520;10.248;2022-10-16T00:33:46;100253.22;;;16.82;97.41
2549;BME280;1284;53.520;10.248;2022-10-16T00:36:15;100253.53;;;16.88;96.56
2549;BME280;1284;53.520;10.248;2022-10-16T00:38:41;100262.72;;;17.01;95.93
2549;BME280;1284;53.520;10.248;2022-10-16T00:41:07;100265.88;;;16.96;96.44
2549;BME280;1284;53.520;10.248;2022-10-16T00:43:49;100274.03;;;16.96;95.98
2549;BME280;1284;53.520;10.248;2022-10-16T00:48:42;100263.72;;;16.84;96.23
2549;BME280;1284;53.520;10.248;2022-10-16T00:51:12;100268.69;;;16.89;95.57
2549;BME280;1284;53.520;10.248;2022-10-16T00:53:37;100272.19;;;16.89;95.47
2549;BME280;1284;53.520;10.248;2022-10-16T00:56:03;100276.84;;;16.89;94.98
2549;BME280;1284;53.520;10.248;2022-10-16T00:58:29;100272.91;;;16.93;94.79
2549;BME280;1284;53.520;10.248;2022-10-16T01:00:54;100278.88;;;16.81;95.11
2549;BME280;1284;53.520;10.248;2022-10-16T01:03:29;100274.59;;;16.84;95.07
2549;BME280;1284;53.520;10.248;2022-10-16T01:11:48;100286.41;;;16.70;94.86
2549;BME280;1284;53.520;10.248;2022-10-16T01:14:26;100286.66;;;16.39;95.70
2549;BME280;1284;53.520;10.248;2022-10-16T01:17:22;100290.88;;;16.47;96.23
2549;BME280;1284;53.520;10.248;2022-10-16T01:22:18;100288.00;;;16.64;94.77
2549;BME280;1284;53.520;10.248;2022-10-16T01:24:48;100292.94;;;16.73;94.35
2549;BME280;1284;53.520;10.248;2022-10-16T01:29:56;100298.47;;;16.66;93.60
2549;BME280;1284;53.520;10.248;2022-10-16T01:33:14;100298.03;;;16.71;93.50
2549;BME280;1284;53.520;10.248;2022-10-16T01:37:47;100303.63;;;16.57;93.01
2549;BME280;1284;53.520;10.248;2022-10-16T01:40:17;100301.25;;;16.62;92.61
2549;BME280;1284;53.520;10.248;2022-10-16T01:42:47;100299.81;;;16.47;92.10
2549;BME280;1284;53.520;10.248;2022-10-16T01:45:17;100294.31;;;16.54;92.19
2549;BME280;1284;53.520;10.248;2022-10-16T01:47:45;100302.88;;;16.53;91.59
2549;BME280;1284;53.520;10.248;2022-10-16T01:50:12;100301.31;;;16.52;91.34
2549;BME280;1284;53.520;10.248;2022-10-16T01:52:42;100297.53;;;16.39;91.89
2549;BME280;1284;53.520;10.248;2022-10-16T01:55:10;100292.88;;;16.39;91.65
2549;BME280;1284;53.520;10.248;2022-10-16T01:57:40;100295.16;;;16.44;91.82
2549;BME280;1284;53.520;10.248;2022-10-16T02:00:10;100298.66;;;16.48;90.94
2549;BME280;1284;53.520;10.248;2022-10-16T02:02:42;100301.38;;;16.45;91.20
2549;BME280;1284;53.520;10.248;2022-10-16T02:07:45;100302.56;;;16.40;91.15
2549;BME280;1284;53.520;10.248;2022-10-16T02:10:10;100305.28;;;16.40;90.73
2549;BME280;1284;53.520;10.248;2022-10-16T02:12:39;100305.50;;;16.15;91.16
2549;BME280;1284;53.520;10.248;2022-10-16T02:15:06;100299.88;;;16.37;91.16
2549;BME280;1284;53.520;10.248;2022-10-16T02:17:32;100298.09;;;16.19;90.37
2549;BME280;1284;53.520;10.248;2022-10-16T02:19:59;100303.81;;;16.32;89.98
2549;BME280;1284;53.520;10.248;2022-10-16T02:22:43;100296.31;;;16.02;89.96
2549;BME280;1284;53.520;10.248;2022-10-16T02:25:18;100300.38;;;16.24;90.35
2549;BME280;1284;53.520;10.248;2022-10-16T02:27:55;100302.38;;;16.17;89.71
2549;BME280;1284;53.520;10.248;2022-10-16T02:30:30;100298.06;;;16.23;89.74
2549;BME280;1284;53.520;10.248;2022-10-16T02:32:58;100299.22;;;16.25;89.44
2549;BME280;1284;53.520;10.248;2022-10-16T02:35:26;100302.69;;;16.30;89.83
2549;BME280;1284;53.520;10.248;2022-10-16T02:37:53;100302.72;;;16.22;88.60
2549;BME280;1284;53.520;10.248;2022-10-16T02:40:20;100306.28;;;16.16;88.99
2549;BME280;1284;53.520;10.248;2022-10-16T02:42:50;100307.38;;;16.22;88.88
2549;BME280;1284;53.520;10.248;2022-10-16T02:45:16;100300.59;;;16.00;89.67
2549;BME280;1284;53.520;10.248;2022-10-16T02:47:42;100308.69;;;16.03;89.79
2549;BME280;1284;53.520;10.248;2022-10-16T02:50:07;100300.16;;;16.05;89.69
2549;BME280;1284;53.520;10.248;2022-10-16T02:52:33;100302.44;;;16.10;89.05
2549;BME280;1284;53.520;10.248;2022-10-16T02:54:58;100293.13;;;16.11;89.16
2549;BME280;1284;53.520;10.248;2022-10-16T02:57:24;100293.06;;;16.18;89.08
2549;BME280;1284;53.520;10.248;2022-10-16T02:59:49;100304.75;;;16.11;89.04
2549;BME280;1284;53.520;10.248;2022-10-16T03:02:15;100310.25;;;16.04;88.90
2549;BME280;1284;53.520;10.248;2022-10-16T03:04:40;100300.94;;;16.05;88.73
2549;BME280;1284;53.520;10.248;2022-10-16T03:07:06;100305.63;;;16.01;89.53
2549;BME280;1284;53.520;10.248;2022-10-16T03:09:32;100303.63;;;16.09;88.91
2549;BME280;1284;53.520;10.248;2022-10-16T03:11:58;100300.94;;;16.05;89.06
2549;BME280;1284;53.520;10.248;2022-10-16T03:14:23;100294.75;;;16.01;89.09
2549;BME280;1284;53.520;10.248;2022-10-16T03:16:49;100300.97;;;16.02;89.02
2549;BME280;1284;53.520;10.248;2022-10-16T03:19:16;100294.78;;;15.98;89.53
2549;BME280;1284;53.520;10.248;2022-10-16T03:21:42;100299.91;;;15.89;90.04
2549;BME280;1284;53.520;10.248;2022-10-16T03:24:07;100303.03;;;15.84;90.02
2549;BME280;1284;53.520;10.248;2022-10-16T03:26:33;100303.38;;;15.89;89.60
2549;BME280;1284;53.520;10.248;2022-10-16T03:28:58;100301.78;;;15.95;89.04
2549;BME280;1284;53.520;10.248;2022-10-16T03:31:24;100302.25;;;15.87;89.82
2549;BME280;1284;53.520;10.248;2022-10-16T03:33:49;100302.19;;;15.94;89.65
2549;BME280;1284;53.520;10.248;2022-10-16T03:36:15;100292.56;;;15.82;90.08
2549;BME280;1284;53.520;10.248;2022-10-16T03:38:40;100293.75;;;15.81;90.13
2549;BME280;1284;53.520;10.248;2022-10-16T03:41:06;100298.81;;;15.76;89.77
2549;BME280;1284;53.520;10.248;2022-10-16T03:43:33;100300.38;;;15.73;90.18
2549;BME280;1284;53.520;10.248;2022-10-16T03:45:58;100299.53;;;15.87;89.87
2549;BME280;1284;53.520;10.248;2022-10-16T03:48:24;100307.97;;;15.96;89.38
2549;BME280;1284;53.520;10.248;2022-10-16T03:50:49;100307.38;;;15.71;90.19
2549;BME280;1284;53.520;10.248;2022-10-16T03:53:16;100303.06;;;15.80;89.99
2549;BME280;1284;53.520;10.248;2022-10-16T03:55:43;100308.09;;;15.78;89.34
2549;BME280;1284;53.520;10.248;2022-10-16T03:58:09;100311.63;;;15.72;89.93
2549;BME280;1284;53.520;10.248;2022-10-16T04:00:34;100322.88;;;15.74;90.02
2549;BME280;1284;53.520;10.248;2022-10-16T04:03:00;100318.22;;;15.74;89.68
2549;BME280;1284;53.520;10.248;2022-10-16T04:05:26;100321.25;;;15.83;89.63
2549;BME280;1284;53.520;10.248;2022-10-16T04:07:51;100325.56;;;15.81;89.05
2549;BME280;1284;53.520;10.248;2022-10-16T04:10:17;100325.56;;;15.74;89.41
2549;BME280;1284;53.520;10.248;2022-10-16T04:12:42;100332.72;;;15.47;90.25
2549;BME280;1284;53.520;10.248;2022-10-16T04:15:08;100328.03;;;15.51;90.69
2549;BME280;1284;53.520;10.248;2022-10-16T04:17:33;100339.28;;;15.56;90.68
2549;BME280;1284;53.520;10.248;2022-10-16T04:19:59;100345.16;;;15.44;90.54
2549;BME280;1284;53.520;10.248;2022-10-16T04:22:24;100348.63;;;15.48;89.92
2549;BME280;1284;53.520;10.248;2022-10-16T04:24:50;100340.09;;;15.35;90.55
2549;BME280;1284;53.520;10.248;2022-10-16T04:27:16;100339.34;;;15.42;90.87
2549;BME280;1284;53.520;10.248;2022-10-16T04:29:41;100341.22;;;15.56;89.81
2549;BME280;1284;53.520;10.248;2022-10-16T04:32:08;100343.56;;;15.47;90.14
2549;BME280;1284;53.520;10.248;2022-10-16T04:34:34;100342.34;;;15.58;89.88
2549;BME280;1284;53.520;10.248;2022-10-16T04:37:02;100349.00;;;15.47;89.80
2549;BME280;1284;53.520;10.248;2022-10-16T04:39:28;100343.97;;;15.45;90.07
2549;BME280;1284;53.520;10.248;2022-10-16T04:41:56;100353.59;;;15.60;89.47
2549;BME280;1284;53.520;10.248;2022-10-16T04:44:21;100359.47;;;15.48;89.40
2549;BME280;1284;53.520;10.248;2022-10-16T04:46:47;100363.38;;;15.44;90.33
2549;BME280;1284;53.520;10.248;2022-10-16T04:49:13;100371.88;;;15.49;89.76
2549;BME280;1284;53.520;10.248;2022-10-16T04:51:38;100369.56;;;15.37;90.60
2549;BME280;1284;53.520;10.248;2022-10-16T04:54:03;100372.69;;;15.28;91.10
2549;BME280;1284;53.520;10.248;2022-10-16T04:56:29;100367.28;;;15.28;90.91
2549;BME280;1284;53.520;10.248;2022-10-16T04:58:54;100382.34;;;15.33;90.51
2549;BME280;1284;53.520;10.248;2022-10-16T05:01:20;100376.56;;;15.27;91.16
2549;BME280;1284;53.520;10.248;2022-10-16T05:03:45;100372.69;;;15.32;91.32
2549;BME280;1284;53.520;10.248;2022-10-16T05:06:11;100360.31;;;15.31;90.72
2549;BME280;1284;53.520;10.248;2022-10-16T05:08:36;100361.78;;;15.39;90.87
2549;BME280;1284;53.520;10.248;2022-10-16T05:11:02;100377.72;;;15.44;90.09
2549;BME280;1284;53.520;10.248;2022-10-16T05:13:27;100385.84;;;15.44;90.42
2549;BME280;1284;53.520;10.248;2022-10-16T05:15:53;100384.31;;;15.25;90.71
2549;BME280;1284;53.520;10.248;2022-10-16T05:18:18;100392.44;;;15.36;91.05
2549;BME280;1284;53.520;10.248;2022-10-16T05:20:44;100395.19;;;15.32;90.97
2549;BME280;1284;53.520;10.248;2022-10-16T05:23:09;100387.41;;;15.27;91.40
2549;BME280;1284;53.520;10.248;2022-10-16T05:25:36;100391.75;;;15.11;91.78
2549;BME280;1284;53.520;10.248;2022-10-16T05:28:01;100396.00;;;15.12;91.62
2549;BME280;1284;53.520;10.248;2022-10-16T05:30:27;100398.34;;;15.03;92.77
2549;BME280;1284;53.520;10.248;2022-10-16T05:32:52;100401.03;;;15.10;92.33
2549;BME280;1284;53.520;10.248;2022-10-16T05:35:19;100397.56;;;15.06;92.41
2549;BME280;1284;53.520;10.248;2022-10-16T05:37:45;100406.88;;;15.05;92.72
2549;BME280;1284;53.520;10.248;2022-10-16T05:40:11;100403.00;;;15.09;92.47
2549;BME280;1284;53.520;10.248;2022-10-16T05:42:37;100406.44;;;15.20;92.08
2549;BME280;1284;53.520;10.248;2022-10-16T05:45:04;100414.94;;;15.29;91.94
2549;BME280;1284;53.520;10.248;2022-10-16T05:47:29;100414.19;;;15.29;91.65
2549;BME280;1284;53.520;10.248;2022-10-16T05:49:55;100398.31;;;15.20;91.86
2549;BME280;1284;53.520;10.248;2022-10-16T05:52:21;100395.97;;;15.22;91.67
2549;BME280;1284;53.520;10.248;2022-10-16T05:54:46;100403.72;;;15.20;92.02
2549;BME280;1284;53.520;10.248;2022-10-16T05:57:12;100399.84;;;15.28;91.63
2549;BME280;1284;53.520;10.248;2022-10-16T05:59:37;100409.13;;;15.24;91.57
2549;BME280;1284;53.520;10.248;2022-10-16T06:02:03;100407.25;;;15.17;91.57
2549;BME280;1284;53.520;10.248;2022-10-16T06:04:28;100409.56;;;15.15;92.01
2549;BME280;1284;53.520;10.248;2022-10-16T06:06:54;100426.59;;;15.16;92.04
2549;BME280;1284;53.520;10.248;2022-10-16T06:09:26;100421.94;;;15.20;92.11
2549;BME280;1284;53.520;10.248;2022-10-16T06:11:51;100418.84;;;15.25;91.52
2549;BME280;1284;53.520;10.248;2022-10-16T06:14:17;100426.97;;;15.28;91.70
2549;BME280;1284;53.520;10.248;2022-10-16T06:16:42;100424.63;;;15.23;91.64
2549;BME280;1284;53.520;10.248;2022-10-16T06:19:08;100428.13;;;15.24;91.77
2549;BME280;1284;53.520;10.248;2022-10-16T06:21:34;100426.97;;;15.32;91.26
2549;BME280;1284;53.520;10.248;2022-10-16T06:24:00;100421.19;;;15.23;91.50
2549;BME280;1284;53.520;10.248;2022-10-16T06:26:28;100418.81;;;15.32;90.98
2549;BME280;1284;53.520;10.248;2022-10-16T06:28:55;100421.94;;;15.20;91.75
2549;BME280;1284;53.520;10.248;2022-10-16T06:31:21;100428.13;;;15.24;91.43
2549;BME280;1284;53.520;10.248;2022-10-16T06:33:51;100434.75;;;15.12;92.03
2549;BME280;1284;53.520;10.248;2022-10-16T06:36:17;100438.63;;;15.08;92.35
2549;BME280;1284;53.520;10.248;2022-10-16T06:38:43;100439.00;;;15.20;92.03
2549;BME280;1284;53.520;10.248;2022-10-16T06:41:14;100437.09;;;14.93;93.64
2549;BME280;1284;53.520;10.248;2022-10-16T06:43:40;100438.66;;;14.97;93.67
2549;BME280;1284;53.520;10.248;2022-10-16T06:46:08;100444.44;;;15.03;93.23
2549;BME280;1284;53.520;10.248;2022-10-16T06:48:35;100452.59;;;15.03;93.45
2549;BME280;1284;53.520;10.248;2022-10-16T06:51:03;100456.06;;;15.10;93.07
2549;BME280;1284;53.520;10.248;2022-10-16T06:53:31;100459.53;;;15.14;93.30
2549;BME280;1284;53.520;10.248;2022-10-16T06:55:57;100471.56;;;15.17;92.82
2549;BME280;1284;53.520;10.248;2022-10-16T06:58:22;100461.09;;;15.12;93.17
2549;BME280;1284;53.520;10.248;2022-10-16T07:00:48;100468.47;;;15.11;93.74
2549;BME280;1284;53.520;10.248;2022-10-16T07:03:14;100471.56;;;15.10;93.75
2549;BME280;1284;53.520;10.248;2022-10-16T07:05:41;100462.66;;;14.99;94.60
2549;BME280;1284;53.520;10.248;2022-10-16T07:08:07;100466.16;;;14.96;95.56
2549;BME280;1284;53.520;10.248;2022-10-16T07:10:33;100479.72;;;14.92;96.55
2549;BME280;1284;53.520;10.248;2022-10-16T07:12:59;100474.28;;;15.10;96.05
2549;BME280;1284;53.520;10.248;2022-10-16T07:15:25;100475.06;;;15.10;96.66
2549;BME280;1284;53.520;10.248;2022-10-16T07:17:51;100485.91;;;15.17;96.58
2549;BME280;1284;53.520;10.248;2022-10-16T07:20:17;100488.59;;;15.42;95.26
2549;BME280;1284;53.520;10.248;2022-10-16T07:22:42;100477.31;;;15.58;95.68
2549;BME280;1284;53.520;10.248;2022-10-16T07:25:08;100481.53;;;15.76;95.65
2549;BME280;1284;53.520;10.248;2022-10-16T07:27:33;100493.09;;;15.87;95.23
2549;BME280;1284;53.520;10.248;2022-10-16T07:29:59;100491.94;;;15.92;94.96
2549;BME280;1284;53.520;10.248;2022-10-16T07:32:25;100498.81;;;16.10;94.18
2549;BME280;1284;53.520;10.248;2022-10-16T07:34:51;100504.91;;;16.36;94.79
2549;BME280;1284;53.520;10.248;2022-10-16T07:37:17;100507.13;;;16.62;93.24
2549;BME280;1284;53.520;10.248;2022-10-16T07:39:42;100513.84;;;16.98;92.53
2549;BME280;1284;53.520;10.248;2022-10-16T07:42:08;100518.72;;;17.17;91.05
2549;BME280;1284;53.520;10.248;2022-10-16T07:44:33;100528.25;;;17.39;89.68
2549;BME280;1284;53.520;10.248;2022-10-16T07:46:59;100536.16;;;17.67;89.12
2549;BME280;1284;53.520;10.248;2022-10-16T07:49:24;100538.31;;;17.83;88.42
2549;BME280;1284;53.520;10.248;2022-10-16T07:51:50;100539.47;;;17.85;87.59
2549;BME280;1284;53.520;10.248;2022-10-16T07:54:15;100550.44;;;18.12;87.36
2549;BME280;1284;53.520;10.248;2022-10-16T07:56:41;100548.19;;;18.07;85.88
2549;BME280;1284;53.520;10.248;2022-10-16T07:59:06;100548.88;;;18.15;85.50
2549;BME280;1284;53.520;10.248;2022-10-16T08:01:32;100550.94;;;18.03;86.28
2549;BME280;1284;53.520;10.248;2022-10-16T08:03:57;100551.84;;;18.27;86.20
2549;BME280;1284;53.520;10.248;2022-10-16T08:06:23;100558.22;;;18.47;85.62
2549;BME280;1284;53.520;10.248;2022-10-16T08:08:49;100555.97;;;18.69;85.25
2549;BME280;1284;53.520;10.248;2022-10-16T08:11:14;100552.94;;;18.63;84.23
2549;BME280;1284;53.520;10.248;2022-10-16T08:13:40;100560.84;;;18.81;84.39
2549;BME280;1284;53.520;10.248;2022-10-16T08:16:06;100560.50;;;18.79;83.55
2549;BME280;1284;53.520;10.248;2022-10-16T08:18:35;100554.63;;;18.80;83.62
2549;BME280;1284;53.520;10.248;2022-10-16T08:21:01;100558.25;;;18.97;83.23
2549;BME280;1284;53.520;10.248;2022-10-16T08:23:27;100562.31;;;18.89;82.32
2549;BME280;1284;53.520;10.248;2022-10-16T08:25:54;100564.28;;;18.58;83.66
2549;BME280;1284;53.520;10.248;2022-10-16T08:28:21;100570.38;;;18.69;83.78
2549;BME280;1284;53.520;10.248;2022-10-16T08:30:46;100572.34;;;18.69;83.68
2549;BME280;1284;53.520;10.248;2022-10-16T08:33:12;100570.03;;;18.67;83.22
2549;BME280;1284;53.520;10.248;2022-10-16T08:35:37;100572.09;;;18.26;85.19
2549;BME280;1284;53.520;10.248;2022-10-16T08:38:04;100567.41;;;18.27;85.34
2549;BME280;1284;53.520;10.248;2022-10-16T08:40:32;100568.69;;;18.52;84.93
2549;BME280;1284;53.520;10.248;2022-10-16T08:43:14;100568.94;;;18.28;85.12
2549;BME280;1284;53.520;10.248;2022-10-16T08:48:54;100571.97;;;18.67;83.69
2549;BME280;1284;53.520;10.248;2022-10-16T08:51:36;100578.75;;;18.82;83.44
2549;BME280;1284;53.520;10.248;2022-10-16T08:54:28;100577.44;;;19.17;83.07
2549;BME280;1284;53.520;10.248;2022-10-16T08:56:57;100577.44;;;19.43;80.69
2549;BME280;1284;53.520;10.248;2022-10-16T08:59:26;100568.44;;;19.66;79.70
2549;BME280;1284;53.520;10.248;2022-10-16T09:01:52;100573.78;;;19.93;78.08
2549;BME280;1284;53.520;10.248;2022-10-16T09:06:58;100583.84;;;19.99;77.50
2549;BME280;1284;53.520;10.248;2022-10-16T09:09:34;100586.91;;;20.01;77.26
2549;BME280;1284;53.520;10.248;2022-10-16T09:12:31;100599.28;;;20.29;76.16
2549;BME280;1284;53.520;10.248;2022-10-16T09:15:23;100597.34;;;20.65;75.23
2549;BME280;1284;53.520;10.248;2022-10-16T09:18:15;100593.28;;;20.89;74.56
2549;BME280;1284;53.520;10.248;2022-10-16T09:20:49;100605.19;;;20.99;73.29
2549;BME280;1284;53.520;10.248;2022-10-16T09:23:25;100599.81;;;20.59;73.83
2549;BME280;1284;53.520;10.248;2022-10-16T09:25:53;100607.06;;;20.86;73.73
2549;BME280;1284;53.520;10.248;2022-10-16T09:28:19;100613.53;;;20.76;73.60
2549;BME280;1284;53.520;10.248;2022-10-16T09:30:45;100612.44;;;20.89;74.02
2549;BME280;1284;53.520;10.248;2022-10-16T09:33:12;100620.44;;;21.00;73.07
2549;BME280;1284;53.520;10.248;2022-10-16T09:35:44;100618.41;;;21.04;72.49
2549;BME280;1284;53.520;10.248;2022-10-16T09:38:21;100621.88;;;20.88;71.54
2549;BME280;1284;53.520;10.248;2022-10-16T09:40:47;100620.91;;;20.95;71.50
2549;BME280;1284;53.520;10.248;2022-10-16T09:45:38;100622.78;;;20.82;71.40
2549;BME280;1284;53.520;10.248;2022-10-16T09:48:11;100621.16;;;21.04;71.29
2549;BME280;1284;53.520;10.248;2022-10-16T09:50:37;100628.34;;;21.14;71.60
2549;BME280;1284;53.520;10.248;2022-10-16T09:53:13;100627.47;;;21.01;70.05
2549;BME280;1284;53.520;10.248;2022-10-16T09:55:49;100630.91;;;20.85;70.36
2549;BME280;1284;53.520;10.248;2022-10-16T09:58:15;100638.31;;;20.88;68.72
2549;BME280;1284;53.520;10.248;2022-10-16T10:00:42;100632.25;;;20.77;69.23
2549;BME280;1284;53.520;10.248;2022-10-16T10:03:35;100637.91;;;20.70;70.48
2549;BME280;1284;53.520;10.248;2022-10-16T10:10:56;100646.59;;;20.85;69.63
2549;BME280;1284;53.520;10.248;2022-10-16T10:13:24;100651.59;;;20.70;69.23
2549;BME280;1284;53.520;10.248;2022-10-16T10:15:50;100657.50;;;21.04;69.04
2549;BME280;1284;53.520;10.248;2022-10-16T10:18:18;100654.41;;;21.02;68.27
2549;BME280;1284;53.520;10.248;2022-10-16T10:20:45;100661.84;;;21.21;68.01
2549;BME280;1284;53.520;10.248;2022-10-16T10:23:23;100664.03;;;21.10;67.97
2549;BME280;1284;53.520;10.248;2022-10-16T10:26:31;100655.13;;;21.06;67.68
2549;BME280;1284;53.520;10.248;2022-10-16T10:37:14;100653.59;;;21.37;66.58
2549;BME280;1284;53.520;10.248;2022-10-16T10:40:11;100663.38;;;21.38;64.76
2549;BME280;1284;53.520;10.248;2022-10-16T10:45:26;100674.59;;;21.44;64.66
2549;BME280;1284;53.520;10.248;2022-10-16T10:50:49;100679.72;;;21.74;63.82
2549;BME280;1284;53.520;10.248;2022-10-16T10:56:05;100687.19;;;21.90;63.44
2549;BME280;1284;53.520;10.248;2022-10-16T11:01:20;100681.78;;;22.02;61.36
2549;BME280;1284;53.520;10.248;2022-10-16T11:06:26;100676.13;;;21.77;60.22
2549;BME280;1284;53.520;10.248;2022-10-16T11:09:18;100685.31;;;21.71;60.75
2549;BME280;1284;53.520;10.248;2022-10-16T11:11:45;100695.09;;;21.55;61.42
2549;BME280;1284;53.520;10.248;2022-10-16T11:14:25;100703.88;;;21.47;61.09
2549;BME280;1284;53.520;10.248;2022-10-16T11:16:59;100690.44;;;21.52;61.22
2549;BME280;1284;53.520;10.248;2022-10-16T11:25:02;100691.66;;;21.68;59.83
2549;BME280;1284;53.520;10.248;2022-10-16T11:28:11;100702.44;;;21.58;59.91
2549;BME280;1284;53.520;10.248;2022-10-16T11:30:51;100686.59;;;21.66;59.49
2549;BME280;1284;53.520;10.248;2022-10-16T11:33:27;100702.63;;;21.68;60.40
2549;BME280;1284;53.520;10.248;2022-10-16T11:36:16;100695.75;;;21.76;58.58
2549;BME280;1284;53.520;10.248;2022-10-16T11:41:45;100707.38;;;21.83;59.06
2549;BME280;1284;53.520;10.248;2022-10-16T11:49:47;100712.06;;;21.15;59.86
2549;BME280;1284;53.520;10.248;2022-10-16T11:52:20;100725.41;;;20.93;61.82
2549;BME280;1284;53.520;10.248;2022-10-16T11:57:24;100727.38;;;20.93;61.24
2549;BME280;1284;53.520;10.248;2022-10-16T11:59:57;100724.38;;;20.67;60.67
2549;BME280;1284;53.520;10.248;2022-10-16T12:05:14;100740.69;;;20.94;60.54
2549;BME280;1284;53.520;10.248;2022-10-16T12:08:11;100736.66;;;20.99;61.08
2549;BME280;1284;53.520;10.248;2022-10-16T12:10:39;100731.16;;;21.18;61.33
2549;BME280;1284;53.520;10.248;2022-10-16T12:18:39;100746.22;;;21.46;58.79
2549;BME280;1284;53.520;10.248;2022-10-16T12:21:06;100747.13;;;21.23;59.49
2549;BME280;1284;53.520;10.248;2022-10-16T12:23:36;100756.34;;;21.29;59.82
2549;BME280;1284;53.520;10.248;2022-10-16T12:26:03;100761.69;;;21.36;59.39
2549;BME280;1284;53.520;10.248;2022-10-16T12:28:31;100760.00;;;21.42;59.45
2549;BME280;1284;53.520;10.248;2022-10-16T12:31:03;100762.84;;;21.55;59.46
2549;BME280;1284;53.520;10.248;2022-10-16T12:33:33;100761.53;;;21.43;59.27
2549;BME280;1284;53.520;10.248;2022-10-16T12:36:01;100759.09;;;21.29;59.93
2549;BME280;1284;53.520;10.248;2022-10-16T12:38:48;100771.28;;;21.28;59.97
2549;BME280;1284;53.520;10.248;2022-10-16T12:43:49;100770.88;;;21.10;61.38
2549;BME280;1284;53.520;10.248;2022-10-16T12:48:42;100782.22;;;20.69;61.22
2549;BME280;1284;53.520;10.248;2022-10-16T12:51:25;100786.88;;;20.73;61.61
2549;BME280;1284;53.520;10.248;2022-10-16T12:54:19;100777.69;;;20.83;60.66
2549;BME280;1284;53.520;10.248;2022-10-16T13:15:41;100823.28;;;20.69;62.58
2549;BME280;1284;53.520;10.248;2022-10-16T13:21:03;100829.19;;;20.68;60.29
2549;BME280;1284;53.520;10.248;2022-10-16T13:23:52;100826.66;;;20.57;61.84
2549;BME280;1284;53.520;10.248;2022-10-16T13:28:51;100841.09;;;20.58;61.36
2549;BME280;1284;53.520;10.248;2022-10-16T13:31:20;100839.31;;;20.71;61.46
2549;BME280;1284;53.520;10.248;2022-10-16T13:33:51;100851.50;;;20.66;62.09
2549;BME280;1284;53.520;10.248;2022-10-16T13:38:47;100860.00;;;20.72;61.81
2549;BME280;1284;53.520;10.248;2022-10-16T13:41:17;100851.56;;;20.63;61.42
2549;BME280;1284;53.520;10.248;2022-10-16T13:43:46;100864.25;;;20.77;61.22
2549;BME280;1284;53.520;10.248;2022-10-16T13:46:25;100863.94;;;20.71;61.97
2549;BME280;1284;53.520;10.248;2022-10-16T13:51:38;100864.66;;;20.52;62.19
2549;BME280;1284;53.520;10.248;2022-10-16T13:54:03;100872.13;;;20.48;61.84
2549;BME280;1284;53.520;10.248;2022-10-16T13:56:31;100877.88;;;20.57;61.79
2549;BME280;1284;53.520;10.248;2022-10-16T13:59:05;100880.97;;;20.59;61.68
2549;BME280;1284;53.520;10.248;2022-10-16T14:01:42;100882.03;;;20.65;60.98
2549;BME280;1284;53.520;10.248;2022-10-16T14:04:11;100880.91;;;20.39;62.04
2549;BME280;1284;53.520;10.248;2022-10-16T14:06:43;100881.72;;;20.36;61.68
2549;BME280;1284;53.520;10.248;2022-10-16T14:09:29;100880.25;;;20.32;62.72
2549;BME280;1284;53.520;10.248;2022-10-16T14:11:58;100896.03;;;20.47;62.71
2549;BME280;1284;53.520;10.248;2022-10-16T14:14:26;100887.22;;;20.59;62.56
2549;BME280;1284;53.520;10.248;2022-10-16T14:16:55;100895.19;;;20.74;61.51
2549;BME280;1284;53.520;10.248;2022-10-16T14:19:24;100895.00;;;20.61;60.36
2549;BME280;1284;53.520;10.248;2022-10-16T14:21:51;100896.31;;;20.76;61.18
2549;BME280;1284;53.520;10.248;2022-10-16T14:24:34;100907.25;;;20.76;61.23
2549;BME280;1284;53.520;10.248;2022-10-16T14:27:01;100909.13;;;20.83;59.95
2549;BME280;1284;53.520;10.248;2022-10-16T14:29:28;100912.50;;;20.67;59.22
2549;BME280;1284;53.520;10.248;2022-10-16T14:32:05;100914.34;;;20.74;59.73
2549;BME280;1284;53.520;10.248;2022-10-16T14:34:36;100922.97;;;20.72;58.92
2549;BME280;1284;53.520;10.248;2022-10-16T14:39:32;100931.31;;;20.65;58.60
2549;BME280;1284;53.520;10.248;2022-10-16T14:41:58;100921.84;;;20.69;59.29
2549;BME280;1284;53.520;10.248;2022-10-16T14:44:33;100935.00;;;20.78;58.58
2549;BME280;1284;53.520;10.248;2022-10-16T14:47:07;100937.25;;;20.83;58.23
2549;BME280;1284;53.520;10.248;2022-10-16T14:49:34;100933.56;;;20.70;57.82
2549;BME280;1284;53.520;10.248;2022-10-16T14:51:59;100938.88;;;20.81;57.90
2549;BME280;1284;53.520;10.248;2022-10-16T14:54:26;100934.16;;;20.81;58.28
2549;BME280;1284;53.520;10.248;2022-10-16T14:56:58;100946.66;;;20.82;58.31
2549;BME280;1284;53.520;10.248;2022-10-16T14:59:50;100938.03;;;20.84;58.21
2549;BME280;1284;53.520;10.248;2022-10-16T15:04:50;100941.50;;;20.64;58.75
2549;BME280;1284;53.520;10.248;2022-10-16T15:07:15;100943.16;;;20.82;59.56
2549;BME280;1284;53.520;10.248;2022-10-16T15:09:41;100948.81;;;20.71;58.76